MDT,Max TemperatureF,Mean TemperatureF,Min TemperatureF,Max Dew PointF,MeanDew PointF,Min DewpointF,Max Humidity, Mean Humidity, Min Humidity, Max Sea Level PressureIn, Mean Sea Level PressureIn, Min Sea Level PressureIn, Max VisibilityMiles, Mean VisibilityMiles, Min VisibilityMiles, Max Wind SpeedMPH, Mean Wind SpeedMPH, Max Gust SpeedMPH,PrecipitationIn, CloudCover, Events, WindDirDegrees
2013-3-1,46,34,21,30,25,18,93,71,49,30.53,30.48,30.45,10,10,10,7,1,,0.00,2,,222
2013-3-2,50,34,19,32,24,18,100,70,37,30.52,30.34,30.11,10,9,4,14,2,,0.00,0,,159
2013-3-3,39,34,28,36,31,23,100,87,69,30.10,29.97,29.89,10,10,5,5,1,,0.00,7,Snow,90
2013-3-4,37,26,15,32,17,5,100,60,28,30.25,30.07,29.88,10,10,3,24,7,33,0.00,3,,67
2013-3-5,51,30,10,19,12,5,86,55,18,30.27,30.14,29.99,10,10,10,14,1,18,0.00,0,,179
2013-3-6,53,38,23,30,21,16,80,48,28,30.00,29.88,29.78,10,10,10,22,4,38,0.00,3,,215
2013-3-7,51,42,32,32,29,23,93,69,33,29.97,29.91,29.84,10,10,10,13,5,,0.00,4,,179
2013-3-8,44,38,32,34,32,30,100,84,57,29.89,29.78,29.69,10,9,3,6,1,,0.00,7,Snow,208
2013-3-9,46,38,30,32,26,14,87,65,37,30.21,29.89,29.67,10,10,7,23,10,31,0.00,4,,32
2013-3-10,50,36,21,23,19,14,86,58,30,30.34,30.27,30.21,10,10,10,16,2,,0.00,0,,216
2013-3-11,51,37,23,30,24,19,86,65,35,30.29,30.22,30.14,10,10,10,12,1,,0.00,4,,135
2013-3-12,55,44,32,32,31,28,93,67,38,30.32,30.26,30.19,10,10,10,16,2,18,0.00,3,,220
2013-3-13,62,44,26,32,28,23,100,66,25,30.42,30.35,30.30,10,10,10,13,2,17,0.00,0,,202
2013-3-14,69,48,26,32,27,21,93,59,16,30.38,30.30,30.22,10,10,7,15,1,21,0.00,0,,202
2013-3-15,68,49,30,32,27,21,93,54,18,30.22,30.11,30.02,10,10,10,14,2,20,0.00,0,,197
2013-3-16,59,46,32,30,23,7,87,52,14,30.03,29.97,29.84,10,10,10,16,3,24,0.00,1,,305
2013-3-17,48,39,28,32,21,14,81,51,27,29.97,29.87,29.79,10,10,10,28,8,41,0.00,4,,308
2013-3-18,50,39,28,25,18,12,80,51,24,30.08,30.03,29.98,10,10,10,22,3,28,0.00,5,Thunderstorm,246
2013-3-19,51,38,24,21,11,-4,74,41,11,30.22,30.16,30.08,10,10,10,10,2,,0.00,0,Thunderstorm,140
2013-3-20,46,34,23,37,27,14,87,71,52,30.18,30.02,29.82,10,10,7,8,1,,0.00,6,Rain,282
2013-3-21,42,32,23,36,18,-2,100,53,17,29.95,29.86,29.71,10,10,7,20,7,28,0.00,2,Thunderstorm,347
2013-3-22,33,25,17,27,17,7,93,72,32,29.96,29.89,29.83,10,7,0,23,3,29,0.00,6,Snow,35
2013-3-23,32,24,15,21,16,10,93,75,47,30.15,30.06,29.96,10,9,2,12,2,9,0.00,6,Snow,165
2013-3-24,35,24,12,18,11,9,92,64,33,30.16,30.13,30.10,10,10,10,14,2,20,0.00,2,,48
2013-3-25,50,30,10,25,14,7,92,56,28,30.20,30.12,30.05,10,10,7,16,2,17,0.00,3,,195
2013-3-26,57,40,24,32,23,18,87,59,23,30.05,29.96,29.88,10,10,10,22,3,30,0.00,4,Thunderstorm,260
2013-3-27,62,42,23,30,24,19,93,60,19,30.07,30.01,29.96,10,10,10,16,4,21,0.00,1,Thunderstorm,210
2013-3-28,64,45,26,28,25,21,86,52,21,30.10,30.05,30.01,10,10,10,18,3,23,0.00,1,Thunderstorm,222
2013-3-29,64,48,32,32,30,27,87,57,27,30.23,30.18,30.12,10,10,10,15,4,21,0.00,3,,218
2013-3-30,64,44,24,32,26,19,93,57,19,30.25,30.20,30.14,10,10,10,18,2,26,0.00,1,Thunderstorm,324
2013-3-31,68,44,21,32,24,16,93,51,14,30.20,30.10,29.96,10,10,10,16,2,21,0.00,1,Thunderstorm,220